Time;durP1;ratioP1;P1;durP2;ratioP2;P2;SDS_P1;SDS_P2;PMS_P1;PMS_P2;Temp;Humidity;BMP_temperature;BMP_pressure;BME280_temperature;BME280_humidity;BME280_pressure;Samples;Min_cycle;Max_cycle;Signal;HPM_P1;HPM_P2
2022/03/18 00:02:22;;;;;;;;;;;7.50;99.90;;;;;;5096281;28;19916;-40
2022/03/18 00:04:48;;;;;;;;;;;7.60;99.90;;;;;;5095724;28;19908;-41
2022/03/18 00:07:15;;;;;;;;;;;7.50;99.90;;;;;;5096098;28;19908;-41
2022/03/18 00:09:41;;;;;;;;;;;7.50;99.90;;;;;;5096055;28;19915;-41
2022/03/18 00:12:10;;;;;;;;;;;7.40;99.90;;;;;;5095888;28;19923;-40
2022/03/18 00:14:39;;;;;;;;;;;7.40;99.90;;;;;;5095966;28;19961;-41
2022/03/18 00:17:04;;;;;;;;;;;7.40;99.90;;;;;;5095632;28;20310;-42
2022/03/18 00:19:31;;;;;;;;;;;7.30;99.90;;;;;;5095720;28;19954;-42
2022/03/18 00:22:01;;;;;;;;;;;7.20;99.90;;;;;;5095835;28;19919;-41
2022/03/18 00:24:27;;;;;;;;;;;7.20;99.90;;;;;;5095486;28;20432;-41
2022/03/18 00:26:53;;;;;;;;;;;7.10;99.90;;;;;;5095615;28;19999;-41
2022/03/18 00:29:18;;;;;;;;;;;7.20;99.90;;;;;;5095450;28;19954;-41
2022/03/18 00:31:44;;;;;;;;;;;7.10;99.90;;;;;;5095456;28;20270;-44
2022/03/18 00:34:10;;;;;;;;;;;7.10;99.90;;;;;;5095444;28;20380;-41
2022/03/18 00:36:36;;;;;;;;;;;7.00;99.90;;;;;;5095382;28;20416;-49
2022/03/18 00:39:02;;;;;;;;;;;7.00;99.90;;;;;;5094915;28;20010;-41
2022/03/18 00:41:27;;;;;;;;;;;7.00;99.90;;;;;;5095224;28;20006;-41
2022/03/18 00:43:53;;;;;;;;;;;7.00;99.90;;;;;;5095172;28;19908;-40
2022/03/18 00:46:22;;;;;;;;;;;7.00;99.90;;;;;;5095145;28;19909;-41
2022/03/18 00:54:16;;;;;;;;;;;7.00;99.90;;;;;;5095266;28;20335;-41
2022/03/18 00:56:42;;;;;;;;;;;6.90;99.90;;;;;;5094800;28;19908;-41
2022/03/18 00:59:08;;;;;;;;;;;6.80;99.90;;;;;;5095092;28;20259;-40
2022/03/18 01:01:33;;;;;;;;;;;6.80;99.90;;;;;;5093751;28;19908;-40
2022/03/18 01:03:59;;;;;;;;;;;6.80;99.90;;;;;;5094778;28;19995;-41
2022/03/18 01:06:24;;;;;;;;;;;6.80;99.90;;;;;;5095029;28;19965;-41
2022/03/18 01:08:50;;;;;;;;;;;6.80;99.90;;;;;;5094625;28;20429;-42
2022/03/18 01:11:15;;;;;;;;;;;6.90;99.90;;;;;;5094810;28;20321;-41
2022/03/18 01:13:41;;;;;;;;;;;6.80;99.90;;;;;;5094789;28;20376;-40
2022/03/18 01:16:06;;;;;;;;;;;6.90;99.90;;;;;;5094812;28;19912;-41
2022/03/18 01:18:32;;;;;;;;;;;6.90;99.90;;;;;;5094736;28;20266;-41
2022/03/18 01:20:57;;;;;;;;;;;7.00;99.90;;;;;;5094366;28;19943;-40
2022/03/18 01:23:23;;;;;;;;;;;6.90;99.90;;;;;;5094539;28;20259;-40
2022/03/18 01:25:48;;;;;;;;;;;6.90;99.90;;;;;;5094765;28;19908;-40
2022/03/18 01:28:15;;;;;;;;;;;7.00;99.90;;;;;;5094301;28;20264;-40
2022/03/18 01:30:41;;;;;;;;;;;6.90;99.90;;;;;;5094562;28;19921;-40
2022/03/18 01:33:07;;;;;;;;;;;6.90;99.90;;;;;;5094483;28;20285;-40
2022/03/18 01:35:32;;;;;;;;;;;6.90;99.90;;;;;;5094149;28;19915;-41
2022/03/18 01:37:58;;;;;;;;;;;7.00;99.90;;;;;;5094027;28;19908;-40
2022/03/18 01:40:23;;;;;;;;;;;6.90;99.90;;;;;;5094311;28;19908;-41
2022/03/18 01:42:49;;;;;;;;;;;6.90;99.90;;;;;;5094338;28;19970;-40
2022/03/18 01:45:14;;;;;;;;;;;6.90;99.90;;;;;;5094108;28;19908;-40
2022/03/18 01:47:43;;;;;;;;;;;6.90;99.90;;;;;;5094142;28;19912;-40
2022/03/18 01:50:12;;;;;;;;;;;6.90;99.90;;;;;;5093303;28;20235;-41
2022/03/18 01:52:38;;;;;;;;;;;6.90;99.90;;;;;;5093585;28;20003;-40
2022/03/18 01:55:04;;;;;;;;;;;6.80;99.90;;;;;;5094189;28;19954;-41
2022/03/18 01:57:29;;;;;;;;;;;6.90;99.90;;;;;;5094001;28;19908;-41
2022/03/18 01:59:55;;;;;;;;;;;6.90;99.90;;;;;;5093706;28;19908;-40
2022/03/18 02:02:21;;;;;;;;;;;6.90;99.90;;;;;;5093656;28;20398;-41
2022/03/18 02:04:47;;;;;;;;;;;6.90;99.90;;;;;;5092724;28;19947;-40
2022/03/18 02:07:13;;;;;;;;;;;7.00;99.90;;;;;;5093647;28;20330;-41
2022/03/18 02:09:39;;;;;;;;;;;7.00;99.90;;;;;;5093957;28;19908;-40
2022/03/18 02:12:05;;;;;;;;;;;7.00;99.90;;;;;;5094041;28;19916;-40
2022/03/18 02:14:35;;;;;;;;;;;7.00;99.90;;;;;;5093852;28;20023;-41
2022/03/18 02:17:01;;;;;;;;;;;7.00;99.90;;;;;;5092623;28;19909;-40
2022/03/18 02:19:27;;;;;;;;;;;7.10;99.90;;;;;;5093558;28;19912;-40
2022/03/18 02:21:54;;;;;;;;;;;7.10;99.90;;;;;;5093469;28;19915;-41
2022/03/18 02:24:20;;;;;;;;;;;7.10;99.90;;;;;;5093888;28;19908;-40
2022/03/18 02:26:49;;;;;;;;;;;7.00;99.90;;;;;;5093880;28;19912;-40
2022/03/18 02:29:16;;;;;;;;;;;7.00;99.90;;;;;;5093538;28;19915;-40
2022/03/18 02:31:42;;;;;;;;;;;7.00;99.90;;;;;;5093441;28;19947;-40
2022/03/18 02:34:08;;;;;;;;;;;7.00;99.90;;;;;;5094121;28;19935;-40
2022/03/18 02:36:33;;;;;;;;;;;7.00;99.90;;;;;;5093421;28;19912;-41
2022/03/18 02:38:59;;;;;;;;;;;7.00;99.90;;;;;;5094016;28;19912;-41
2022/03/18 02:41:24;;;;;;;;;;;7.00;99.90;;;;;;5093390;28;19908;-40
2022/03/18 02:43:50;;;;;;;;;;;6.90;99.90;;;;;;5093725;28;20364;-40
2022/03/18 02:46:16;;;;;;;;;;;6.90;99.90;;;;;;5093390;28;19909;-40
2022/03/18 02:48:41;;;;;;;;;;;6.80;99.90;;;;;;5093604;28;19908;-41
2022/03/18 02:51:07;;;;;;;;;;;6.80;99.90;;;;;;5093259;28;19916;-41
2022/03/18 02:53:33;;;;;;;;;;;6.90;99.90;;;;;;5093474;28;19912;-42
2022/03/18 02:55:58;;;;;;;;;;;6.90;99.90;;;;;;5093541;28;19908;-42
2022/03/18 02:58:24;;;;;;;;;;;6.70;99.90;;;;;;5093246;28;19915;-41
2022/03/18 03:00:50;;;;;;;;;;;6.60;99.90;;;;;;5093216;28;20011;-41
2022/03/18 03:03:16;;;;;;;;;;;6.60;99.90;;;;;;5096491;28;20262;-40
2022/03/18 03:08:26;;;;;;;;;;;6.70;99.90;;;;;;5096314;28;19931;-39
2022/03/18 03:10:51;;;;;;;;;;;6.70;99.90;;;;;;5097094;28;20350;-41
2022/03/18 03:13:17;;;;;;;;;;;6.60;99.90;;;;;;5096746;28;19922;-41
2022/03/18 03:15:43;;;;;;;;;;;6.60;99.90;;;;;;5096701;28;19912;-41
2022/03/18 03:18:08;;;;;;;;;;;6.60;99.90;;;;;;5097340;28;20369;-41
2022/03/18 03:20:34;;;;;;;;;;;6.60;99.90;;;;;;5096723;28;19908;-40
2022/03/18 03:22:59;;;;;;;;;;;6.60;99.90;;;;;;5092495;28;19965;-40
2022/03/18 03:25:25;;;;;;;;;;;6.70;99.90;;;;;;5097045;28;19912;-41
2022/03/18 03:27:51;;;;;;;;;;;6.70;99.90;;;;;;5096923;28;19916;-40
2022/03/18 03:30:17;;;;;;;;;;;6.70;99.90;;;;;;5096655;28;19960;-40
2022/03/18 03:32:42;;;;;;;;;;;6.70;99.90;;;;;;5095663;28;19962;-41
2022/03/18 03:35:08;;;;;;;;;;;6.70;99.90;;;;;;5095098;28;19955;-41
2022/03/18 03:37:34;;;;;;;;;;;6.70;99.90;;;;;;5095026;28;20323;-42
2022/03/18 03:39:59;;;;;;;;;;;6.60;99.90;;;;;;5094988;28;19908;-42
2022/03/18 03:42:25;;;;;;;;;;;6.60;99.90;;;;;;5098389;28;19965;-42
2022/03/18 03:44:50;;;;;;;;;;;6.60;99.90;;;;;;5095223;28;19912;-41
2022/03/18 03:47:16;;;;;;;;;;;6.70;99.90;;;;;;5095006;28;20282;-41
2022/03/18 03:49:41;;;;;;;;;;;6.60;99.90;;;;;;5093650;28;20373;-40
2022/03/18 03:52:10;;;;;;;;;;;6.60;99.90;;;;;;5093559;28;20444;-41
2022/03/18 03:54:37;;;;;;;;;;;6.50;99.90;;;;;;5094766;28;19934;-41
2022/03/18 03:57:03;;;;;;;;;;;6.50;99.90;;;;;;5094773;28;19969;-41
2022/03/18 03:59:28;;;;;;;;;;;6.60;99.90;;;;;;5095091;28;19915;-40
2022/03/18 04:01:54;;;;;;;;;;;6.70;99.90;;;;;;5094473;28;20352;-41
2022/03/18 04:04:19;;;;;;;;;;;6.70;99.90;;;;;;5091855;28;19912;-40
2022/03/18 04:06:45;;;;;;;;;;;6.70;99.90;;;;;;5094391;28;20279;-42
2022/03/18 04:09:10;;;;;;;;;;;6.70;99.90;;;;;;5094428;28;19911;-40
2022/03/18 04:11:36;;;;;;;;;;;6.70;99.90;;;;;;5094285;28;19912;-41
2022/03/18 04:14:01;;;;;;;;;;;6.70;99.90;;;;;;5093275;28;19912;-41
2022/03/18 04:16:27;;;;;;;;;;;6.60;99.90;;;;;;5094102;28;19912;-42
2022/03/18 04:18:53;;;;;;;;;;;6.50;99.90;;;;;;5094497;28;19908;-41
2022/03/18 04:21:18;;;;;;;;;;;6.40;99.90;;;;;;5094388;28;19908;-41
2022/03/18 04:23:44;;;;;;;;;;;6.50;99.90;;;;;;5093924;28;19912;-40
2022/03/18 04:26:09;;;;;;;;;;;6.50;99.90;;;;;;5093576;28;20351;-41
2022/03/18 04:28:34;;;;;;;;;;;6.50;99.90;;;;;;5093979;28;19908;-41
2022/03/18 04:31:00;;;;;;;;;;;6.50;99.90;;;;;;5094203;28;19916;-41
2022/03/18 04:33:26;;;;;;;;;;;6.30;99.90;;;;;;5092599;28;19912;-42
2022/03/18 04:35:51;;;;;;;;;;;6.30;99.90;;;;;;5094080;28;19904;-41
2022/03/18 04:38:17;;;;;;;;;;;6.10;99.90;;;;;;5093571;28;20250;-41
2022/03/18 04:40:43;;;;;;;;;;;6.10;99.90;;;;;;5095054;28;19911;-42
2022/03/18 04:43:09;;;;;;;;;;;6.20;99.90;;;;;;5093604;28;20350;-41
2022/03/18 04:45:34;;;;;;;;;;;6.20;99.90;;;;;;5094814;28;19904;-40
2022/03/18 04:48:00;;;;;;;;;;;6.00;99.90;;;;;;5094815;28;20296;-40
2022/03/18 04:50:25;;;;;;;;;;;5.90;99.90;;;;;;5095148;28;19904;-40
2022/03/18 04:52:51;;;;;;;;;;;5.80;99.90;;;;;;5095055;28;19908;-41
2022/03/18 04:55:16;;;;;;;;;;;5.80;99.90;;;;;;5094529;28;20373;-41
2022/03/18 04:57:42;;;;;;;;;;;5.80;99.90;;;;;;5094858;28;20358;-43
2022/03/18 05:00:09;;;;;;;;;;;5.80;99.90;;;;;;5094882;28;19958;-41
2022/03/18 05:02:36;;;;;;;;;;;5.80;99.90;;;;;;5095333;28;19911;-40
2022/03/18 05:05:02;;;;;;;;;;;5.80;99.90;;;;;;5094720;28;19904;-42
2022/03/18 05:07:28;;;;;;;;;;;5.80;99.90;;;;;;5090111;28;19954;-41
2022/03/18 05:09:54;;;;;;;;;;;5.80;99.90;;;;;;5093344;28;19904;-41
2022/03/18 05:12:19;;;;;;;;;;;5.90;99.90;;;;;;5094171;28;19908;-42
2022/03/18 05:14:45;;;;;;;;;;;5.90;99.90;;;;;;5094634;28;19916;-41
2022/03/18 05:17:11;;;;;;;;;;;5.90;99.90;;;;;;5094604;28;19911;-41
2022/03/18 05:19:37;;;;;;;;;;;5.90;99.90;;;;;;5094576;28;19996;-41
2022/03/18 05:22:03;;;;;;;;;;;5.90;99.90;;;;;;5094583;28;19904;-40
2022/03/18 05:24:28;;;;;;;;;;;6.00;99.90;;;;;;5093751;28;19905;-40
2022/03/18 05:26:54;;;;;;;;;;;6.00;99.90;;;;;;5094058;28;19943;-40
2022/03/18 05:29:20;;;;;;;;;;;6.10;99.90;;;;;;5093868;28;19928;-42
2022/03/18 05:31:46;;;;;;;;;;;6.20;99.90;;;;;;5093756;28;19912;-41
2022/03/18 05:34:12;;;;;;;;;;;6.30;99.90;;;;;;5093726;28;19912;-40
2022/03/18 05:36:38;;;;;;;;;;;6.30;99.90;;;;;;5094152;28;19937;-41
2022/03/18 05:39:04;;;;;;;;;;;6.40;99.90;;;;;;5094247;28;19923;-40
2022/03/18 05:41:31;;;;;;;;;;;6.60;99.90;;;;;;5093541;28;19908;-41
2022/03/18 05:43:56;;;;;;;;;;;6.60;99.90;;;;;;5092412;28;20361;-42
2022/03/18 05:46:22;;;;;;;;;;;6.40;99.90;;;;;;5094988;28;20001;-41
2022/03/18 05:48:47;;;;;;;;;;;6.30;99.90;;;;;;5093880;28;20404;-42
2022/03/18 05:51:13;;;;;;;;;;;6.10;99.90;;;;;;5093110;28;20014;-40
2022/03/18 05:53:39;;;;;;;;;;;6.00;99.90;;;;;;5093801;28;20294;-41
2022/03/18 05:58:49;;;;;;;;;;;6.00;99.90;;;;;;5108961;28;19919;-41
2022/03/18 06:01:15;;;;;;;;;;;6.10;99.90;;;;;;5109547;28;19908;-41
2022/03/18 06:03:40;;;;;;;;;;;6.10;99.90;;;;;;5093452;28;19908;-42
2022/03/18 06:06:06;;;;;;;;;;;6.20;99.90;;;;;;5093457;28;19909;-42
2022/03/18 06:14:00;;;;;;;;;;;6.20;99.90;;;;;;5092960;28;20008;-41
2022/03/18 06:16:25;;;;;;;;;;;6.30;99.90;;;;;;5092911;28;19955;-40
2022/03/18 06:18:51;;;;;;;;;;;6.40;99.90;;;;;;5092931;28;19943;-41
2022/03/18 06:21:16;;;;;;;;;;;6.50;99.90;;;;;;5092849;28;19912;-41
2022/03/18 06:23:42;;;;;;;;;;;6.50;99.90;;;;;;5092480;28;19983;-41
2022/03/18 06:26:08;;;;;;;;;;;6.60;99.90;;;;;;5093073;28;19961;-41
2022/03/18 06:28:33;;;;;;;;;;;6.60;99.90;;;;;;5092975;28;20398;-41
2022/03/18 06:30:59;;;;;;;;;;;6.80;99.90;;;;;;5091584;28;19994;-41
2022/03/18 06:33:27;;;;;;;;;;;6.80;99.90;;;;;;5092942;28;20290;-41
2022/03/18 06:35:52;;;;;;;;;;;7.00;99.90;;;;;;5092440;28;19916;-42
2022/03/18 06:38:18;;;;;;;;;;;7.20;99.90;;;;;;5095677;28;19961;-41
2022/03/18 06:40:44;;;;;;;;;;;7.30;99.90;;;;;;5097199;28;19916;-41
2022/03/18 06:43:09;;;;;;;;;;;7.30;99.90;;;;;;5096728;28;20316;-42
2022/03/18 06:45:35;;;;;;;;;;;7.50;99.90;;;;;;5096853;28;19932;-41
2022/03/18 06:48:00;;;;;;;;;;;7.30;99.90;;;;;;5096869;28;19942;-41
2022/03/18 06:50:26;;;;;;;;;;;7.30;99.90;;;;;;5097150;28;20273;-40
2022/03/18 06:52:51;;;;;;;;;;;7.10;99.90;;;;;;5096497;28;20358;-41
2022/03/18 06:55:17;;;;;;;;;;;7.20;99.90;;;;;;5096172;28;19916;-41
2022/03/18 06:57:43;;;;;;;;;;;7.30;99.90;;;;;;5097022;28;20354;-40
2022/03/18 07:00:08;;;;;;;;;;;7.40;99.90;;;;;;5096177;28;19908;-41
2022/03/18 07:02:34;;;;;;;;;;;7.50;99.90;;;;;;5096654;28;19931;-40
2022/03/18 07:05:00;;;;;;;;;;;7.30;99.90;;;;;;5096226;28;19936;-40
2022/03/18 07:07:25;;;;;;;;;;;7.40;99.90;;;;;;5096422;28;19958;-42
2022/03/18 07:09:51;;;;;;;;;;;7.50;99.90;;;;;;5096351;28;19975;-40
2022/03/18 07:12:16;;;;;;;;;;;7.50;99.90;;;;;;5095973;28;19959;-41
2022/03/18 07:14:42;;;;;;;;;;;7.70;99.90;;;;;;5095711;28;19912;-42
2022/03/18 07:19:52;;;;;;;;;;;7.40;99.90;;;;;;5096125;28;19931;-41
2022/03/18 07:22:18;;;;;;;;;;;7.50;99.90;;;;;;5096251;28;19962;-41
2022/03/18 07:24:44;;;;;;;;;;;7.60;99.90;;;;;;5096002;28;19912;-41
2022/03/18 07:27:09;;;;;;;;;;;7.70;99.90;;;;;;5094895;28;20011;-42
2022/03/18 07:29:36;;;;;;;;;;;7.60;99.90;;;;;;5095433;28;19977;-40
2022/03/18 07:32:02;;;;;;;;;;;7.70;99.90;;;;;;5096018;28;19912;-41
2022/03/18 07:34:27;;;;;;;;;;;7.80;99.90;;;;;;5095630;28;19916;-41
2022/03/18 07:36:53;;;;;;;;;;;7.80;99.90;;;;;;5095319;28;19916;-40
2022/03/18 07:39:18;;;;;;;;;;;8.00;99.90;;;;;;5095053;28;19908;-41
2022/03/18 07:41:44;;;;;;;;;;;7.80;99.90;;;;;;5095423;28;19919;-40
2022/03/18 07:44:09;;;;;;;;;;;7.90;99.90;;;;;;5095364;28;19912;-42
2022/03/18 07:46:35;;;;;;;;;;;8.10;99.90;;;;;;5095444;28;19908;-42
2022/03/18 07:49:01;;;;;;;;;;;8.00;99.90;;;;;;5094294;28;19908;-41
2022/03/18 07:51:26;;;;;;;;;;;8.00;99.90;;;;;;5095507;28;20082;-42
2022/03/18 07:53:52;;;;;;;;;;;7.90;99.90;;;;;;5095295;28;19970;-41
2022/03/18 07:56:17;;;;;;;;;;;8.00;99.90;;;;;;5095753;28;20002;-41
2022/03/18 07:58:43;;;;;;;;;;;7.80;99.90;;;;;;5095345;28;19912;-41
2022/03/18 08:01:10;;;;;;;;;;;8.00;99.90;;;;;;5095023;28;19985;-41
2022/03/18 08:03:36;;;;;;;;;;;7.70;99.90;;;;;;5094129;28;19960;-42
2022/03/18 08:06:01;;;;;;;;;;;7.90;99.90;;;;;;5095136;28;19916;-41
2022/03/18 08:08:27;;;;;;;;;;;8.00;99.90;;;;;;5094597;28;19947;-42
2022/03/18 08:10:53;;;;;;;;;;;7.90;99.90;;;;;;5093990;28;19908;-42
2022/03/18 08:13:19;;;;;;;;;;;7.90;99.90;;;;;;5093929;28;19943;-42
2022/03/18 08:15:44;;;;;;;;;;;7.90;99.90;;;;;;5095116;28;19915;-41
2022/03/18 08:18:10;;;;;;;;;;;8.20;99.90;;;;;;5093972;28;20019;-42
2022/03/18 08:20:40;;;;;;;;;;;8.50;99.90;;;;;;5095397;28;20012;-40
2022/03/18 08:23:14;;;;;;;;;;;8.70;99.90;;;;;;5095468;28;19916;-41
2022/03/18 08:25:40;;;;;;;;;;;8.20;99.90;;;;;;5095155;28;19909;-40
2022/03/18 08:28:06;;;;;;;;;;;8.00;99.90;;;;;;5094986;28;20010;-42
2022/03/18 08:30:33;;;;;;;;;;;8.30;99.90;;;;;;5093358;28;19920;-41
2022/03/18 08:32:58;;;;;;;;;;;8.40;99.90;;;;;;5095072;28;19912;-41
2022/03/18 08:35:24;;;;;;;;;;;8.90;99.90;;;;;;5127853;27;19919;-41
2022/03/18 08:37:58;;;;;;;;;;;9.00;99.90;;;;;;5093571;28;19931;-43
2022/03/18 08:40:25;;;;;;;;;;;8.80;99.90;;;;;;5094759;28;19912;-41
2022/03/18 08:42:51;;;;;;;;;;;8.70;99.90;;;;;;5094846;28;19999;-40
2022/03/18 08:45:18;;;;;;;;;;;9.20;99.90;;;;;;5094765;28;19989;-41
2022/03/18 08:47:44;;;;;;;;;;;9.50;99.90;;;;;;5093384;28;19924;-41
2022/03/18 08:50:09;;;;;;;;;;;9.40;99.90;;;;;;5094885;28;19995;-41
2022/03/18 08:52:35;;;;;;;;;;;9.90;99.90;;;;;;5094327;28;20002;-41
2022/03/18 08:55:01;;;;;;;;;;;10.10;99.90;;;;;;5093346;28;19943;-41
2022/03/18 08:57:28;;;;;;;;;;;10.00;99.90;;;;;;5094498;28;19956;-41
2022/03/18 08:59:57;;;;;;;;;;;10.00;99.90;;;;;;5093968;28;19915;-41
2022/03/18 09:02:23;;;;;;;;;;;9.40;99.90;;;;;;5094182;28;19908;-42
2022/03/18 09:04:50;;;;;;;;;;;9.40;99.90;;;;;;5094550;28;19909;-41
2022/03/18 09:07:16;;;;;;;;;;;9.70;99.90;;;;;;5093781;28;19915;-41
2022/03/18 09:09:41;;;;;;;;;;;10.00;99.90;;;;;;5094244;28;19998;-41
2022/03/18 09:12:07;;;;;;;;;;;10.20;99.90;;;;;;5094041;28;20013;-41
2022/03/18 09:14:32;;;;;;;;;;;10.40;99.90;;;;;;5093765;28;20053;-41
2022/03/18 09:16:58;;;;;;;;;;;10.70;99.90;;;;;;5094026;28;19970;-41
2022/03/18 09:19:23;;;;;;;;;;;10.30;99.90;;;;;;5092641;28;20416;-41
2022/03/18 09:21:49;;;;;;;;;;;9.70;99.90;;;;;;5093616;28;19908;-40
2022/03/18 09:24:15;;;;;;;;;;;9.80;99.90;;;;;;5094048;28;19984;-41
2022/03/18 09:26:41;;;;;;;;;;;10.40;99.90;;;;;;5093714;28;19916;-43
2022/03/18 09:29:06;;;;;;;;;;;10.70;99.90;;;;;;5093015;28;19931;-40
2022/03/18 09:31:32;;;;;;;;;;;10.80;99.90;;;;;;5093597;28;19912;-41
2022/03/18 09:33:58;;;;;;;;;;;10.80;99.90;;;;;;5091887;28;19912;-40
2022/03/18 09:36:23;;;;;;;;;;;11.30;99.90;;;;;;5093407;28;19930;-41
2022/03/18 09:38:49;;;;;;;;;;;11.10;99.90;;;;;;5093740;28;19912;-42
2022/03/18 09:41:16;;;;;;;;;;;10.40;99.90;;;;;;5093195;28;19919;-41
2022/03/18 09:43:42;;;;;;;;;;;10.00;99.90;;;;;;5093104;28;19915;-42
2022/03/18 09:46:09;;;;;;;;;;;10.20;99.90;;;;;;5092044;28;19912;-40
2022/03/18 09:48:34;;;;;;;;;;;10.20;99.90;;;;;;5092413;28;19909;-41
2022/03/18 09:51:00;;;;;;;;;;;10.60;99.90;;;;;;5093462;28;20215;-41
2022/03/18 09:53:25;;;;;;;;;;;10.80;99.90;;;;;;5093337;28;19912;-41
2022/03/18 09:55:51;;;;;;;;;;;9.80;99.90;;;;;;5093100;28;19908;-41
2022/03/18 09:58:21;;;;;;;;;;;10.20;99.90;;;;;;5093297;28;19954;-40
2022/03/18 10:00:47;;;;;;;;;;;9.80;99.90;;;;;;5092777;28;19912;-40
2022/03/18 10:03:16;;;;;;;;;;;10.00;99.90;;;;;;5093218;28;19962;-41
2022/03/18 10:05:58;;;;;;;;;;;9.90;99.90;;;;;;5092234;28;19984;-43
2022/03/18 10:08:23;;;;;;;;;;;10.10;99.90;;;;;;5091588;28;19916;-41
2022/03/18 10:10:49;;;;;;;;;;;10.20;99.90;;;;;;5092917;28;19908;-40
2022/03/18 10:13:16;;;;;;;;;;;10.40;99.90;;;;;;5092633;28;20014;-41
2022/03/18 10:15:42;;;;;;;;;;;10.40;99.90;;;;;;5092400;28;20305;-43
2022/03/18 10:18:12;;;;;;;;;;;10.20;99.90;;;;;;5092309;28;19912;-42
2022/03/18 10:20:38;;;;;;;;;;;10.20;99.90;;;;;;5093585;28;19952;-41
2022/03/18 10:23:05;;;;;;;;;;;10.40;99.90;;;;;;5093810;28;20263;-41
2022/03/18 10:25:35;;;;;;;;;;;10.80;99.90;;;;;;5093406;28;19908;-41
2022/03/18 10:28:00;;;;;;;;;;;10.60;99.90;;;;;;5093338;28;19912;-41
2022/03/18 10:30:27;;;;;;;;;;;10.50;99.90;;;;;;5093245;28;19920;-41
2022/03/18 10:32:53;;;;;;;;;;;10.30;99.90;;;;;;5093231;28;19912;-41
2022/03/18 10:38:30;;;;;;;;;;;11.00;99.90;;;;;;5093165;28;19946;-40
2022/03/18 10:40:56;;;;;;;;;;;11.70;99.90;;;;;;5092895;28;19908;-41
2022/03/18 10:43:22;;;;;;;;;;;12.00;99.60;;;;;;5093119;28;19948;-41
2022/03/18 10:46:00;;;;;;;;;;;11.70;98.60;;;;;;5092648;28;20366;-41
2022/03/18 10:48:26;;;;;;;;;;;11.50;99.50;;;;;;5092647;28;19915;-41
2022/03/18 10:51:02;;;;;;;;;;;11.60;99.90;;;;;;5091956;28;20274;-41
2022/03/18 10:53:30;;;;;;;;;;;11.70;99.80;;;;;;5092997;28;19920;-41
2022/03/18 10:55:59;;;;;;;;;;;11.70;99.20;;;;;;5092899;28;19914;-42
2022/03/18 10:58:25;;;;;;;;;;;11.70;98.60;;;;;;5092612;28;20284;-41
2022/03/18 11:00:52;;;;;;;;;;;11.80;98.60;;;;;;5092686;28;19908;-42
2022/03/18 11:03:18;;;;;;;;;;;11.50;98.20;;;;;;5092919;28;19934;-41
2022/03/18 11:05:46;;;;;;;;;;;10.80;99.20;;;;;;5092661;28;20362;-42
2022/03/18 11:08:13;;;;;;;;;;;11.20;98.80;;;;;;5092308;28;19976;-42
2022/03/18 11:11:17;;;;;;;;;;;11.10;98.60;;;;;;5092793;28;19924;-42
2022/03/18 11:13:48;;;;;;;;;;;11.40;98.50;;;;;;5092609;28;19923;-41
2022/03/18 11:16:18;;;;;;;;;;;11.00;97.80;;;;;;5092011;28;19908;-42
2022/03/18 11:18:45;;;;;;;;;;;11.20;98.30;;;;;;5091862;28;19919;-41
2022/03/18 11:21:11;;;;;;;;;;;11.50;98.10;;;;;;5092414;28;19915;-41
2022/03/18 11:23:41;;;;;;;;;;;11.60;97.30;;;;;;5093683;28;19912;-43
2022/03/18 11:26:07;;;;;;;;;;;11.30;97.90;;;;;;5095682;28;19932;-42
2022/03/18 11:28:33;;;;;;;;;;;11.20;98.20;;;;;;5095920;28;19980;-42
2022/03/18 11:31:03;;;;;;;;;;;11.30;97.50;;;;;;5096088;28;19920;-41
2022/03/18 11:33:29;;;;;;;;;;;11.40;97.70;;;;;;5096146;28;19958;-41
2022/03/18 11:35:54;;;;;;;;;;;11.50;97.90;;;;;;5095862;28;19908;-41
2022/03/18 11:38:25;;;;;;;;;;;11.50;98.20;;;;;;5095704;28;19934;-42
2022/03/18 11:40:51;;;;;;;;;;;11.10;98.40;;;;;;5095908;28;19953;-43
2022/03/18 11:43:33;;;;;;;;;;;11.20;98.60;;;;;;5095692;28;20343;-41
2022/03/18 11:46:16;;;;;;;;;;;11.40;98.30;;;;;;5095526;28;19908;-42
2022/03/18 11:48:46;;;;;;;;;;;11.40;98.10;;;;;;5095803;28;19912;-41
2022/03/18 11:51:21;;;;;;;;;;;11.40;98.30;;;;;;5095394;28;19990;-41
2022/03/18 11:53:48;;;;;;;;;;;11.60;98.50;;;;;;5095363;28;19912;-42
2022/03/18 11:56:17;;;;;;;;;;;12.00;97.90;;;;;;5095454;28;19908;-41
2022/03/18 11:58:43;;;;;;;;;;;12.10;97.60;;;;;;5095369;28;19962;-42
2022/03/18 12:01:29;;;;;;;;;;;12.30;97.50;;;;;;5095317;28;20004;-42
2022/03/18 12:03:55;;;;;;;;;;;12.20;97.70;;;;;;5095431;28;19951;-42
2022/03/18 12:06:20;;;;;;;;;;;12.10;97.60;;;;;;5094939;28;19931;-41
2022/03/18 12:08:52;;;;;;;;;;;12.30;97.70;;;;;;5093764;28;19915;-42
2022/03/18 12:11:31;;;;;;;;;;;12.30;97.70;;;;;;5095140;28;19920;-42
2022/03/18 12:13:57;;;;;;;;;;;12.50;97.10;;;;;;5095122;28;19920;-42
2022/03/18 12:16:23;;;;;;;;;;;12.50;96.90;;;;;;5095111;28;19908;-41
2022/03/18 12:18:57;;;;;;;;;;;12.40;96.70;;;;;;5095159;28;19912;-41
2022/03/18 12:21:36;;;;;;;;;;;12.70;96.30;;;;;;5095280;28;20367;-41
2022/03/18 12:24:06;;;;;;;;;;;12.80;96.50;;;;;;5094865;28;19908;-42
2022/03/18 12:26:31;;;;;;;;;;;13.00;96.50;;;;;;5094345;28;20327;-41
2022/03/18 12:28:57;;;;;;;;;;;12.80;96.40;;;;;;5094522;28;19912;-42
2022/03/18 12:31:22;;;;;;;;;;;12.40;96.50;;;;;;5095301;28;19920;-41
2022/03/18 12:33:55;;;;;;;;;;;12.20;96.80;;;;;;5094523;28;19915;-41
2022/03/18 12:36:24;;;;;;;;;;;12.40;95.90;;;;;;5093826;28;19950;-44
2022/03/18 12:38:50;;;;;;;;;;;12.60;95.60;;;;;;5094456;28;19914;-41
2022/03/18 12:41:18;;;;;;;;;;;12.50;95.70;;;;;;5093446;28;20342;-41
2022/03/18 12:43:43;;;;;;;;;;;12.40;96.30;;;;;;5127069;27;20382;-41
2022/03/18 12:46:10;;;;;;;;;;;11.60;96.50;;;;;;5094102;28;19915;-42
2022/03/18 12:48:36;;;;;;;;;;;11.30;97.10;;;;;;5094287;28;19908;-41
2022/03/18 12:51:03;;;;;;;;;;;11.40;97.30;;;;;;5094595;28;19955;-42
2022/03/18 12:53:34;;;;;;;;;;;11.80;96.80;;;;;;5094311;28;19920;-41
2022/03/18 12:56:00;;;;;;;;;;;12.10;96.70;;;;;;5093985;28;19947;-41
2022/03/18 12:58:27;;;;;;;;;;;12.40;96.20;;;;;;5094027;28;19930;-42
2022/03/18 13:00:55;;;;;;;;;;;12.50;95.70;;;;;;5094080;28;19915;-42
2022/03/18 13:03:23;;;;;;;;;;;12.70;95.90;;;;;;5093614;28;19953;-42
2022/03/18 13:05:50;;;;;;;;;;;12.50;95.70;;;;;;5093641;28;20418;-41
2022/03/18 13:08:16;;;;;;;;;;;12.70;95.90;;;;;;5094072;28;19962;-43
2022/03/18 13:10:42;;;;;;;;;;;12.50;95.80;;;;;;5093580;28;19983;-41
2022/03/18 13:13:13;;;;;;;;;;;11.90;96.20;;;;;;5093739;28;19916;-41
2022/03/18 13:15:47;;;;;;;;;;;11.20;97.20;;;;;;5094023;28;20277;-41
2022/03/18 13:18:17;;;;;;;;;;;11.10;97.60;;;;;;5093529;28;20264;-40
2022/03/18 13:20:44;;;;;;;;;;;11.40;97.70;;;;;;5093448;28;19908;-41
2022/03/18 13:23:10;;;;;;;;;;;11.30;97.90;;;;;;5093716;28;19987;-40
2022/03/18 13:25:36;;;;;;;;;;;11.40;98.00;;;;;;5093382;28;19908;-41
2022/03/18 13:28:02;;;;;;;;;;;11.20;98.10;;;;;;5126263;27;19915;-41
2022/03/18 13:33:12;;;;;;;;;;;11.40;97.90;;;;;;5093847;28;20254;-43
2022/03/18 13:36:07;;;;;;;;;;;11.10;98.00;;;;;;5092213;28;19931;-41
2022/03/18 13:38:46;;;;;;;;;;;11.50;98.10;;;;;;5087620;28;20213;-41
2022/03/18 13:41:14;;;;;;;;;;;11.80;97.50;;;;;;5093531;28;20002;-42
2022/03/18 13:43:40;;;;;;;;;;;11.90;97.20;;;;;;5092901;28;20355;-41
2022/03/18 13:46:16;;;;;;;;;;;11.70;97.00;;;;;;5092409;28;20347;-40
2022/03/18 13:48:42;;;;;;;;;;;11.70;97.20;;;;;;5093413;28;19908;-42
2022/03/18 13:51:09;;;;;;;;;;;11.80;97.10;;;;;;5091778;28;20287;-42
2022/03/18 13:53:35;;;;;;;;;;;12.00;97.00;;;;;;5091699;28;19973;-40
2022/03/18 13:56:14;;;;;;;;;;;11.90;96.90;;;;;;5093068;28;19916;-42
2022/03/18 13:58:40;;;;;;;;;;;11.80;97.10;;;;;;5093201;28;19909;-41
2022/03/18 14:01:10;;;;;;;;;;;11.80;97.50;;;;;;5093052;28;19915;-42
2022/03/18 14:03:36;;;;;;;;;;;11.60;97.60;;;;;;5092237;28;20204;-41
2022/03/18 14:06:03;;;;;;;;;;;11.60;97.80;;;;;;5093043;28;19943;-41
2022/03/18 14:08:30;;;;;;;;;;;12.00;97.80;;;;;;5092664;28;19908;-41
2022/03/18 14:12:08;;;;;;;;;;;11.80;97.10;;;;;;5092236;28;19920;-42
2022/03/18 14:13:47;;;;;;;;;;;12.00;97.10;;;;;;5092646;28;20397;-42
2022/03/18 14:16:13;;;;;;;;;;;12.20;96.30;;;;;;5091674;28;19933;-41
2022/03/18 14:18:43;;;;;;;;;;;12.30;96.40;;;;;;5092756;28;20065;-42
2022/03/18 14:21:11;;;;;;;;;;;12.40;96.20;;;;;;5092910;28;20378;-42
2022/03/18 14:23:42;;;;;;;;;;;12.50;95.60;;;;;;5091888;28;20305;-41
2022/03/18 14:26:08;;;;;;;;;;;12.20;95.70;;;;;;5091285;28;19965;-42
2022/03/18 14:28:34;;;;;;;;;;;12.40;95.90;;;;;;5092726;28;19923;-41
2022/03/18 14:31:00;;;;;;;;;;;12.40;95.80;;;;;;5093022;28;20305;-41
2022/03/18 14:33:29;;;;;;;;;;;12.10;96.00;;;;;;5090879;28;19916;-41
2022/03/18 14:35:54;;;;;;;;;;;12.20;95.90;;;;;;5092921;28;19951;-41
2022/03/18 14:38:22;;;;;;;;;;;12.40;96.10;;;;;;5092790;28;19944;-42
2022/03/18 14:40:47;;;;;;;;;;;12.30;96.00;;;;;;5093191;28;19916;-42
2022/03/18 14:43:13;;;;;;;;;;;12.50;96.10;;;;;;5092482;28;19914;-41
2022/03/18 14:45:39;;;;;;;;;;;12.40;96.00;;;;;;5092942;28;20337;-41
2022/03/18 14:48:05;;;;;;;;;;;12.20;95.90;;;;;;5092449;28;19908;-41
2022/03/18 14:50:31;;;;;;;;;;;12.20;96.30;;;;;;5092618;28;20369;-42